Aérodrome :
LOGIN :

S'inscrire | Disclaimer

   EN    FR    IT 

 










Légende :    VFR   VFR Marginal   IFR   IFR Intensif   IFR Très Intensif
Visi : 
Plafond : 
>= 8 km
>= 3000ft
5 à 8 km
1000 à 3000 ft
1500m à 5 km
500 à 1000 ft
800 à 1500m
200 à 500 ft
< 800m
< 200 ft
Symboles :   Orages  Brouillard  Fortes neiges  Fortes précipitations  Vent > 20 kt
SIGMETs :   Divers  Orages  Givrage  Turbulence  Onde Orograph.  Cendres Volcan.






- Altitude de l'aérodrome : 10 ft
- Code IATA : AAL


EKYT - Aalborg

DERNIER METAR :
  • 130920Z AUTO 14005KT 9999 NCD 05/02 Q0999

METARs EXPIRÉS :
  • 130850Z AUTO 13007KT 9999 NCD 04/02 Q0999
  • 130820Z AUTO 13006KT 9999 NCD 03/01 Q0999
  • 130750Z AUTO 13006KT 9999 FEW200/// 02/01 Q0999
  • 130720Z AUTO 12007KT 9999 NCD 01/00 Q0999
  • 130650Z AUTO 13005KT 9999 NCD 02/00 Q0999

TAF TAF EKYT
Valide du 13 à 09h jusqu'au 14 à 09h UTC


130814Z 1309/1409 14010KT 9999 SCT030
TEMPO 1316/1318 14010G20KT 7000 -SHRA BKN012 SCT020CB
TEMPO 1318/1405 5000 -SHRA BKN012 SCT020CB
BECMG 1403/1406 20006KT
TEMPO 1405/1408 5000 BR



MET'MAP, la Météo Aéronautique d'un coup d'oeil ! - Copyright ORBIFLY Décembre 2007 - Disclaimer

ORBIFLY MET'MAP TEAM :

Programmation & Développement : Alexandra Zaïnal
Conception & Développement : Baudouin d'Aumeries
Co-Programmation & Développement : Marc-Olivier Méhu
Soutien technique & logistique : Manuel Goepfert

Contact : metmap@orbifly.com




SOURCES & CREDITS :

   NOAA